• Join FlightAware (Why Join?)
  • Login
  • US Flag 
10:00AM EDT


 

Airport Tracker/Info


-or-


 

Live Flight TrackerFlight Track Log ✈ ASQ4179 ✈ 24-Jun-2013 ✈ KRDU - KIAH

Flight Track Log - Related Links

Times and Time Zones

All times are in EDT time to prevent confusion due to time zone crossing. See the ASQ4179 flight status page for this flight to view local times or setup timezone preferences in your user account.

Time Position Orientation Groundspeed Altitude Reporting Facility
EDT Latitude Longitude Course Direction KTS MPH feet Rate Location/Type
06:07AM 35.8644 -78.8164 219° Southwest 171 197 1,100  Level Washington Center
06:09AM 35.8231 -78.9503 249° West 252 290 5,300 2,040 Climbing Washington Center
06:10AM 35.8247 -79.0403 271° West 258 297 7,800 1,920 Climbing Washington Center
06:11AM 35.8333 -79.2963 270° West  Level FlightAware Approximate
06:12AM 35.8195 -79.4242 262° West  Level FlightAware Approximate
06:12AM 35.8328 -79.2361 273° West 263 303 11,300  Level Atlanta Center
06:13AM 35.8043 -79.5457 219° Southwest  Level FlightAware Approximate
06:13AM 35.8311 -79.3489 269° West 304 350 12,300  Level Atlanta Center
06:14AM 35.8211 -79.4725 264° West 342 394 13,200 960 Climbing Atlanta Center
06:15AM 35.8050 -79.6014 261° West 363 418 14,300 1,260 Climbing Atlanta Center
06:16AM 35.7825 -79.7333 258° West 370 426 15,800 1,440 Climbing Atlanta Center
06:17AM 35.7636 -79.8469 258° West 376 433 17,200 1,200 Climbing Atlanta Center
06:18AM 35.7428 -79.9733 259° West 371 427 18,300 1,200 Climbing Atlanta Center
06:19AM 35.7217 -80.0919 258° West 371 427 19,700 1,380 Climbing Atlanta Center
06:20AM 35.7003 -80.2106 258° West 371 427 21,100 1,500 Climbing Atlanta Center
06:21AM 35.6750 -80.3422 257° West 366 421 22,800 1,500 Climbing Atlanta Center
06:22AM 35.6578 -80.4631 260° West 361 415 24,200 1,260 Climbing Atlanta Center
06:23AM 35.6442 -80.5683 261° West 354 407 25,400 1,200 Climbing Atlanta Center
06:24AM 35.6308 -80.6867 262° West 354 407 26,600 1,200 Climbing Atlanta Center
06:25AM 35.6153 -80.8047 261° West 354 407 27,900 1,260 Climbing Atlanta Center
06:26AM 35.5994 -80.9203 260° West 354 407 29,200 1,260 Climbing Atlanta Center
06:27AM 35.5836 -81.0408 261° West 354 407 30,500 1,200 Climbing Atlanta Center
06:28AM 35.5656 -81.1589 259° West 354 407 31,700 1,320 Climbing Atlanta Center
06:29AM 35.5519 -81.2897 263° West 354 407 33,200 1,200 Climbing Atlanta Center
06:30AM 35.5336 -81.4075 259° West 364 419 34,200 720 Climbing Atlanta Center
06:31AM 35.5211 -81.5125 262° West 358 412 34,700 420 Climbing Atlanta Center
06:32AM 35.5047 -81.6253 260° West 347 399 35,100 420 Climbing Atlanta Center
06:33AM 35.4714 -81.7361 250° West 342 394 35,600 420 Climbing Atlanta Center
06:34AM 35.4339 -81.8492 248° West 354 407 36,000 180 Climbing Atlanta Center
06:35AM 35.3983 -81.9647 249° West 360 414 36,000  Level Atlanta Center
06:36AM 35.3586 -82.0881 248° West 380 437 36,000  Level Atlanta Center
06:37AM 35.3189 -82.2161 249° West 396 456 36,000  Level Atlanta Center
06:38AM 35.2708 -82.3597 248° West 406 467 36,000  Level Atlanta Center
06:39AM 35.2267 -82.4928 248° West 419 482 36,000  Level Atlanta Center
06:40AM 35.1842 -82.6156 247° West 425 489 36,000  Level Atlanta Center
06:41AM 35.1419 -82.7511 249° West 430 495 36,000  Level Atlanta Center
06:42AM 35.0953 -82.8914 248° West 437 503 36,000  Level Atlanta Center
06:43AM 35.0486 -83.0289 248° West 443 510 36,000  Level Atlanta Center
06:44AM 35.0017 -83.1664 247° West 438 504 36,000  Level Atlanta Center
06:45AM 34.9544 -83.3089 248° West 444 511 36,000  Level Atlanta Center
06:46AM 34.9094 -83.4411 247° West 438 504 36,000  Level Atlanta Center
06:47AM 34.8642 -83.5781 248° West 444 511 36,000  Level Atlanta Center
06:48AM 34.8164 -83.7150 247° West 438 504 36,000  Level Atlanta Center
06:49AM 34.7667 -83.8517 246° West 443 510 36,000  Level Atlanta Center
06:50AM 34.7208 -83.9908 248° West 449 517 36,000  Level Atlanta Center
06:51AM 34.6708 -84.1297 246° West 449 517 36,000  Level Atlanta Center
06:52AM 34.6267 -84.2686 249° West 449 517 36,000  Level Atlanta Center
06:53AM 34.5806 -84.4047 248° West 444 511 36,000  Level Atlanta Center
06:54AM 34.5278 -84.5556 247° West 444 511 36,000  Level Atlanta Center
06:55AM 34.4772 -84.6914 246° West 439 505 36,000  Level Atlanta Center
06:56AM 34.4303 -84.8297 248° West 439 505 36,000  Level Atlanta Center
06:57AM 34.3836 -84.9650 247° West 439 505 36,000  Level Atlanta Center
06:58AM 34.3344 -85.1003 246° West 439 505 36,000  Level Atlanta Center
06:59AM 34.2853 -85.2356 246° West 439 505 36,000  Level Atlanta Center
07:00AM 34.2378 -85.3706 247° West 439 505 36,000  Level Atlanta Center
07:01AM 34.1906 -85.5028 247° West 433 498 36,000  Level Atlanta Center
07:02AM 34.1408 -85.6350 246° West 443 510 36,000  Level Atlanta Center
07:03AM 34.0953 -85.7697 248° West 437 503 36,000  Level Atlanta Center
07:04AM 34.0433 -85.8964 244° Southwest 426 490 36,000  Level Atlanta Center
07:05AM 33.9931 -86.0306 246° West 426 490 36,000  Level Atlanta Center
07:06AM 33.9408 -86.1672 245° Southwest 438 504 36,000  Level Atlanta Center
07:07AM 33.8925 -86.3011 247° West 443 510 36,000  Level Atlanta Center
07:08AM 33.8419 -86.4372 246° West 443 510 36,000  Level Atlanta Center
07:09AM 33.7911 -86.5708 245° Southwest 443 510 36,000  Level Atlanta Center
07:10AM 33.7403 -86.7067 246° West 443 510 36,000  Level Atlanta Center
07:11AM 33.6894 -86.8375 245° Southwest 443 510 36,000  Level Atlanta Center
07:12AM 33.6403 -86.9731 246° West 438 504 36,000  Level Atlanta Center
07:13AM 33.5953 -87.1114 249° West 438 504 36,000  Level Atlanta Center
07:14AM 33.5481 -87.2442 247° West 444 511 36,000  Level Atlanta Center
07:16AM 33.4928 -87.4131 249° West 432 497 36,000  Level Memphis Center
07:17AM 33.4481 -87.5464 248° West 432 497 36,000  Level Memphis Center
07:18AM 33.3986 -87.6797 246° West 432 497 36,000  Level Memphis Center
07:19AM 33.3536 -87.8156 248° West 443 510 36,000  Level Memphis Center
07:20AM 33.3061 -87.9511 247° West 443 510 36,000  Level Memphis Center
07:21AM 33.2586 -88.0867 247° West 438 504 36,000  Level Memphis Center
07:22AM 33.2208 -88.1969 248° West 438 504 36,000  Level Memphis Center
07:23AM 33.1733 -88.3394 248° West 438 504 36,000  Level Memphis Center
07:24AM 33.1253 -88.4769 247° West 443 510 36,000  Level Memphis Center
07:25AM 33.0792 -88.6094 247° West 443 510 36,000  Level Memphis Center
07:26AM 33.0289 -88.7442 246° West 438 504 36,000  Level Memphis Center
07:27AM 32.9806 -88.8814 247° West 438 504 36,000  Level Memphis Center
07:28AM 32.9319 -89.0158 247° West 443 510 36,000  Level Memphis Center
07:29AM 32.8811 -89.1525 246° West 443 510 36,000  Level Memphis Center
07:30AM 32.8322 -89.2867 247° West 443 510 36,000  Level Memphis Center
07:31AM 32.7831 -89.4208 246° West 443 510 36,000  Level Memphis Center
07:32AM 32.7339 -89.5572 247° West 443 510 36,000  Level Memphis Center
07:33AM 32.6825 -89.6883 245° Southwest 437 503 36,000  Level Memphis Center
07:34AM 32.6331 -89.8219 246° West 442 509 36,000  Level Memphis Center
07:35AM 32.5856 -89.9531 247° West 442 509 36,000  Level Memphis Center
07:36AM 32.5381 -90.0839 247° West 437 503 36,000  Level Memphis Center
07:37AM 32.4861 -90.2094 244° Southwest 437 503 36,000  Level Memphis Center
07:38AM 32.4214 -90.3328 238° Southwest 437 503 36,000  Level Memphis Center
07:39AM 32.3586 -90.4558 239° Southwest 442 509 36,000  Level Memphis Center
07:40AM 32.2508 -90.6572 238° Southwest 435 501 36,000  Level Houston Center
07:41AM 32.1881 -90.7781 238° Southwest 434 499 36,000  Level Houston Center
07:42AM 32.1314 -90.8867 238° Southwest 431 496 36,000  Level Houston Center
07:43AM 32.0675 -91.0069 238° Southwest 432 497 36,000  Level Houston Center
07:44AM 32.0028 -91.1256 237° Southwest 432 497 36,000  Level Houston Center
07:45AM 31.9267 -91.2683 238° Southwest 431 496 36,000  Level Houston Center
07:46AM 31.8628 -91.3878 238° Southwest 430 495 36,000  Level Houston Center
07:47AM 31.7989 -91.5061 238° Southwest 430 495 36,000  Level Houston Center
07:48AM 31.7350 -91.6250 238° Southwest 431 496 36,000  Level Houston Center
07:49AM 31.6708 -91.7436 238° Southwest 431 496 36,000  Level Houston Center
07:50AM 31.6072 -91.8619 238° Southwest 430 495 36,000  Level Houston Center
07:51AM 31.5428 -91.9814 238° Southwest 432 497 36,000  Level Houston Center
07:52AM 31.4689 -92.1128 237° Southwest 428 493 36,000  Level Houston Center
07:53AM 31.4053 -92.2300 238° Southwest 428 493 36,000  Level Houston Center
07:55AM 31.3422 -92.3439 237° Southwest 422 486 36,000  Level Houston Center
07:56AM 31.2792 -92.4578 237° Southwest 419 482 36,000  Level Houston Center
07:57AM 31.2158 -92.5714 237° Southwest 419 482 36,000  Level Houston Center
07:58AM 31.1533 -92.6850 237° Southwest 417 480 36,000  Level Houston Center
07:59AM 31.0906 -92.7975 237° Southwest 415 478 36,000  Level Houston Center
08:00AM 31.0283 -92.9081 237° Southwest 411 473 36,000 -60 Level Houston Center
08:01AM 30.9653 -93.0208 237° Southwest 415 478 35,900 -600 Descending Houston Center
08:02AM 30.9000 -93.1369 237° Southwest 430 495 34,900 -1,380 Descending Houston Center
08:03AM 30.8172 -93.2825 237° Southwest 451 519 33,200 -2,100 Descending Houston Center
08:04AM 30.7486 -93.4044 237° Southwest 454 522 30,700 -2,460 Descending Houston Center
08:05AM 30.6822 -93.5231 237° Southwest 445 512 28,200 -2,400 Descending Houston Center
08:06AM 30.6156 -93.6400 236° Southwest 441 507 25,900 -2,280 Descending Houston Center
08:07AM 30.5486 -93.7561 236° Southwest 440 506 23,600 -2,400 Descending Houston Center
08:08AM 30.4825 -93.8708 236° Southwest 434 499 21,100 -2,760 Descending Houston Center
08:09AM 30.4253 -94.0172 246° West 413 475 18,100 -2,520 Descending Houston Center
08:10AM 30.3858 -94.1344 249° West 397 457 16,000 -2,160 Descending Houston Center
08:10AM 30.3619 -94.2122 250° West 371 427 14,500 -2,280 Descending Houston Center
08:11AM 30.3128 -94.2672 224° Southwest 347 399 13,000 -1,740 Descending Houston Center
08:12AM 30.2692 -94.3069 218° Southwest 345 397 12,100 -600 Descending Houston Center
08:13AM 30.1953 -94.3733 218° Southwest 340 391 12,000 -600 Descending Houston Center
08:14AM 30.1553 -94.4725 245° Southwest 338 389 10,900 -1,260 Descending Houston Center
08:15AM 30.1156 -94.5706 245° Southwest 311 358 9,500 -1,260 Descending Houston Center
08:16AM 30.0836 -94.6511 245° Southwest 284 327 8,400 -1,260 Descending Houston Center
08:17AM 30.0425 -94.7494 244° Southwest 268 308 6,800 -1,260 Descending Houston Center
08:18AM 30.0219 -94.8044 247° West 261 300 5,900 -1,380 Descending Houston Center
08:19AM 29.9931 -94.8786 246° West 256 295 4,300 -1,440 Descending Houston Center
08:20AM 29.9775 -94.9536 257° West 245 282 3,000 -1,080 Descending Houston Center
08:21AM 29.9783 -95.0358 271° West 255 293 2,100 -480 Descending Houston Center
08:22AM 29.9761 -95.1367 269° West 187 215 2,000 -60 Descending Houston Center
08:23AM 29.9769 -95.1822 271° West 200 230 2,000 -480 Level Houston Center
08:24AM 29.9778 -95.2369 271° West 182 209 1,200 -780 Descending Houston Center
08:25AM 29.9778 -95.2836 270° West 165 190 400 -480 Descending Houston Center
08:26AM 29.9767 -95.3300 268° West 162 186 300 -120 Descending Houston Center
08:28AM 29.9833 -95.3333 275° West  Level FlightAware Approximate